createdAt,value
2017-01-28T00:00:11.683Z,1011.1
2017-01-28T00:01:15.910Z,1011.1
2017-01-28T00:02:20.192Z,1011.08
2017-01-28T00:03:25.391Z,1011.08
2017-01-28T00:04:31.567Z,1011.05
2017-01-28T00:05:36.769Z,1011
2017-01-28T00:06:42.937Z,1011.02
2017-01-28T00:07:48.138Z,1010.97
2017-01-28T00:08:54.303Z,1010.95
2017-01-28T00:09:59.486Z,1010.95
2017-01-28T00:11:03.704Z,1010.91
2017-01-28T00:12:09.943Z,1010.91
2017-01-28T00:13:14.101Z,1010.89
2017-01-28T00:14:20.276Z,1010.87
2017-01-28T00:15:25.500Z,1010.8
2017-01-28T00:16:31.764Z,1010.79
2017-01-28T00:17:37.933Z,1010.75
2017-01-28T00:18:43.168Z,1010.71
2017-01-28T00:19:46.390Z,1010.69
2017-01-28T00:20:52.564Z,1010.7
2017-01-28T00:21:58.749Z,1010.73
2017-01-28T00:23:02.959Z,1010.66
2017-01-28T00:24:08.131Z,1010.67
2017-01-28T00:25:13.354Z,1010.65
2017-01-28T00:26:16.610Z,1010.67
2017-01-28T00:27:22.784Z,1010.64
2017-01-28T00:28:28.952Z,1010.67
2017-01-28T00:29:34.131Z,1010.64
2017-01-28T00:30:40.301Z,1010.64
2017-01-28T00:31:46.469Z,1010.66
2017-01-28T00:32:52.649Z,1010.64
2017-01-28T00:33:58.828Z,1010.65
2017-01-28T00:35:04.990Z,1010.63
2017-01-28T00:36:11.185Z,1010.67
2017-01-28T00:37:16.382Z,1010.63
2017-01-28T00:38:21.689Z,1010.62
2017-01-28T00:39:27.855Z,1010.62
2017-01-28T00:40:34.024Z,1010.56
2017-01-28T00:41:39.330Z,1010.57
2017-01-28T00:42:44.533Z,1010.6
2017-01-28T00:43:50.722Z,1010.57
2017-01-28T00:44:56.887Z,1010.55
2017-01-28T00:46:02.089Z,1010.53
2017-01-28T00:47:07.299Z,1010.55
2017-01-28T00:48:12.518Z,1010.53
2017-01-28T00:49:18.698Z,1010.56
2017-01-28T00:50:24.883Z,1010.55
2017-01-28T00:51:30.070Z,1010.56
2017-01-28T00:52:34.276Z,1010.53
2017-01-28T00:53:40.452Z,1010.56
2017-01-28T00:54:46.664Z,1010.56
2017-01-28T00:55:52.821Z,1010.53
2017-01-28T00:56:58.031Z,1010.55
2017-01-28T00:58:02.236Z,1010.56
2017-01-28T00:59:08.399Z,1010.56
2017-01-28T01:00:12.607Z,1010.49
2017-01-28T01:01:17.825Z,1010.5
2017-01-28T01:02:23.992Z,1010.5
2017-01-28T01:03:29.211Z,1010.49
2017-01-28T01:04:34.445Z,1010.51
2017-01-28T01:05:40.599Z,1010.46
2017-01-28T01:06:46.772Z,1010.47
2017-01-28T01:07:51.947Z,1010.43
2017-01-28T01:08:57.118Z,1010.41
2017-01-28T01:10:03.286Z,1010.43
2017-01-28T01:11:08.480Z,1010.43
2017-01-28T01:12:13.679Z,1010.43
2017-01-28T01:13:19.849Z,1010.45
2017-01-28T01:14:26.023Z,1010.41
2017-01-28T01:15:31.286Z,1010.44
2017-01-28T01:16:37.463Z,1010.45
2017-01-28T01:17:42.679Z,1010.45
2017-01-28T01:18:48.853Z,1010.43
2017-01-28T01:19:54.106Z,1010.42
2017-01-28T01:21:00.231Z,1010.4
2017-01-28T01:22:04.566Z,1010.43
2017-01-28T01:23:09.762Z,1010.44
2017-01-28T01:24:16.013Z,1010.42
2017-01-28T01:25:22.176Z,1010.4
2017-01-28T01:26:26.414Z,1010.39
2017-01-28T01:27:32.637Z,1010.39
2017-01-28T01:28:37.850Z,1010.36
2017-01-28T01:29:41.093Z,1010.37
2017-01-28T01:30:47.257Z,1010.34
2017-01-28T01:31:51.565Z,1010.31
2017-01-28T01:32:56.722Z,1010.32
2017-01-28T01:34:02.861Z,1010.37
2017-01-28T01:35:09.067Z,1010.35
2017-01-28T01:36:15.257Z,1010.32
2017-01-28T01:37:21.429Z,1010.38
2017-01-28T01:38:27.633Z,1010.36
2017-01-28T01:39:33.833Z,1010.34
2017-01-28T01:40:39.974Z,1010.35
2017-01-28T01:41:46.174Z,1010.33
2017-01-28T01:42:52.344Z,1010.34
2017-01-28T01:43:57.550Z,1010.32
2017-01-28T01:45:01.849Z,1010.31
2017-01-28T01:46:07.046Z,1010.31
2017-01-28T01:47:12.259Z,1010.3
2017-01-28T01:48:18.428Z,1010.28
2017-01-28T01:49:24.618Z,1010.29
2017-01-28T01:50:29.815Z,1010.24
2017-01-28T01:51:35.981Z,1010.25
2017-01-28T01:52:41.241Z,1010.24
2017-01-28T01:53:46.393Z,1010.22
2017-01-28T01:54:51.678Z,1010.22
2017-01-28T01:55:57.923Z,1010.18
2017-01-28T01:57:03.121Z,1010.19
2017-01-28T01:58:08.340Z,1010.16
2017-01-28T01:59:10.605Z,1010.16
2017-01-28T02:00:15.799Z,1010.15
2017-01-28T02:01:21.963Z,1010.15
2017-01-28T02:02:28.183Z,1010.17
2017-01-28T02:03:34.344Z,1010.14
2017-01-28T02:04:39.561Z,1010.12
2017-01-28T02:05:45.762Z,1010.13
2017-01-28T02:06:50.929Z,1010.14
2017-01-28T02:07:56.138Z,1010.08
2017-01-28T02:09:00.374Z,1010.09
2017-01-28T02:10:05.566Z,1010.1
2017-01-28T02:11:11.742Z,1010.12
2017-01-28T02:12:14.990Z,1010.1
2017-01-28T02:13:20.157Z,1010.13
2017-01-28T02:14:25.358Z,1010.16
2017-01-28T02:15:31.524Z,1010.12
2017-01-28T02:16:36.786Z,1010.1
2017-01-28T02:17:42.020Z,1010.11
2017-01-28T02:18:48.229Z,1010.11
2017-01-28T02:19:54.395Z,1010.05
2017-01-28T02:21:00.564Z,1010
2017-01-28T02:22:05.763Z,1009.99
2017-01-28T02:23:11.931Z,1010
2017-01-28T02:24:17.128Z,1009.96
2017-01-28T02:25:21.360Z,1009.95
2017-01-28T02:26:27.538Z,1009.98
2017-01-28T02:27:33.696Z,1009.98
2017-01-28T02:28:38.955Z,1009.99
2017-01-28T02:29:45.116Z,1010
2017-01-28T02:30:50.313Z,1009.98
2017-01-28T02:31:56.486Z,1009.97
2017-01-28T02:33:02.653Z,1009.98
2017-01-28T02:34:07.848Z,1009.99
2017-01-28T02:35:14.138Z,1009.99
2017-01-28T02:36:20.285Z,1009.97
2017-01-28T02:37:26.495Z,1009.97
2017-01-28T02:38:32.655Z,1010
2017-01-28T02:39:37.955Z,1010.02
2017-01-28T02:40:43.091Z,1010
2017-01-28T02:41:49.262Z,1010.02
2017-01-28T02:42:55.436Z,1010.01
2017-01-28T02:44:01.613Z,1010.03
2017-01-28T02:45:07.783Z,1010.03
2017-01-28T02:46:12.950Z,1010.02
2017-01-28T02:47:19.125Z,1010.02
2017-01-28T02:48:25.293Z,1009.99
2017-01-28T02:49:30.488Z,1010.01
2017-01-28T02:50:36.666Z,1010.03
2017-01-28T02:51:41.870Z,1009.99
2017-01-28T02:52:48.029Z,1010.01
2017-01-28T02:53:52.266Z,1010.06
2017-01-28T02:54:57.539Z,1010.08
2017-01-28T02:56:02.736Z,1010.03
2017-01-28T02:57:06.948Z,1010.05
2017-01-28T02:58:11.201Z,1010.05
2017-01-28T02:59:17.353Z,1010
2017-01-28T03:00:21.574Z,1010.02
2017-01-28T03:01:27.750Z,1010.02
2017-01-28T03:02:33.911Z,1010.04
2017-01-28T03:03:40.081Z,1009.99
2017-01-28T03:05:51.421Z,1009.98
2017-01-28T03:06:55.687Z,1010.03
2017-01-28T03:08:00.822Z,1010
2017-01-28T03:09:07.034Z,1009.99
2017-01-28T03:10:12.223Z,1009.95
2017-01-28T03:11:17.441Z,1009.97
2017-01-28T03:12:23.612Z,1009.93
2017-01-28T03:13:28.808Z,1009.91
2017-01-28T03:14:34.008Z,1009.9
2017-01-28T03:15:40.170Z,1009.9
2017-01-28T03:16:46.342Z,1009.88
2017-01-28T03:17:52.504Z,1009.88
2017-01-28T03:18:57.707Z,1009.93
2017-01-28T03:20:02.907Z,1009.88
2017-01-28T03:21:09.078Z,1009.92
2017-01-28T03:22:14.253Z,1009.95
2017-01-28T03:23:20.415Z,1009.97
2017-01-28T03:24:25.619Z,1009.94
2017-01-28T03:25:29.849Z,1009.98
2017-01-28T03:26:35.038Z,1009.95
2017-01-28T03:27:41.310Z,1009.92
2017-01-28T03:28:44.540Z,1009.95
2017-01-28T03:29:49.756Z,1009.94
2017-01-28T03:30:52.989Z,1009.94
2017-01-28T03:31:57.229Z,1009.95
2017-01-28T03:33:02.395Z,1009.92
2017-01-28T03:34:07.656Z,1009.95
2017-01-28T03:35:12.864Z,1009.95
2017-01-28T03:36:18.181Z,1009.93
2017-01-28T03:37:21.338Z,1009.97
2017-01-28T03:38:27.507Z,1009.95
2017-01-28T03:39:31.700Z,1009.92
2017-01-28T03:40:36.908Z,1009.93
2017-01-28T03:41:41.141Z,1009.94
2017-01-28T03:42:47.369Z,1009.95
2017-01-28T03:43:53.496Z,1009.93
2017-01-28T03:44:58.686Z,1009.91
2017-01-28T03:46:04.881Z,1009.97
2017-01-28T03:47:11.065Z,1009.98
2017-01-28T03:48:17.195Z,1009.97
2017-01-28T03:49:22.387Z,1010
2017-01-28T03:50:27.598Z,1009.94
2017-01-28T03:51:32.769Z,1009.97
2017-01-28T03:52:38.001Z,1009.97
2017-01-28T03:53:43.203Z,1010.02
2017-01-28T03:54:49.376Z,1009.98
2017-01-28T03:55:55.536Z,1009.99
2017-01-28T03:57:01.698Z,1010
2017-01-28T03:58:07.934Z,1009.99
2017-01-28T03:59:14.101Z,1010.01
2017-01-28T04:00:20.302Z,1010.01
2017-01-28T04:01:24.481Z,1010.03
2017-01-28T04:02:30.648Z,1010
2017-01-28T04:03:34.850Z,1010.02
2017-01-28T04:04:41.020Z,1009.98
2017-01-28T04:05:46.196Z,1010
2017-01-28T04:06:50.401Z,1010
2017-01-28T04:07:56.571Z,1009.95
2017-01-28T04:09:00.809Z,1009.99
2017-01-28T04:10:05.046Z,1010
2017-01-28T04:11:10.239Z,1009.99
2017-01-28T04:12:15.413Z,1009.95
2017-01-28T04:13:20.613Z,1009.95
2017-01-28T04:14:25.774Z,1009.94
2017-01-28T04:15:31.968Z,1009.92
2017-01-28T04:16:38.157Z,1009.94
2017-01-28T04:17:44.538Z,1009.96
2017-01-28T04:18:50.702Z,1009.95
2017-01-28T04:19:55.914Z,1009.93
2017-01-28T04:21:02.125Z,1009.95
2017-01-28T04:22:08.290Z,1009.96
2017-01-28T04:23:14.461Z,1009.95
2017-01-28T04:24:20.672Z,1009.94
2017-01-28T04:25:25.807Z,1009.94
2017-01-28T04:26:31.010Z,1009.9
2017-01-28T04:27:36.192Z,1009.93
2017-01-28T04:28:41.392Z,1009.92
2017-01-28T04:29:47.542Z,1009.91
2017-01-28T04:30:51.742Z,1009.85
2017-01-28T04:31:56.936Z,1009.87
2017-01-28T04:33:01.167Z,1009.85
2017-01-28T04:34:05.397Z,1009.85
2017-01-28T04:35:11.544Z,1009.86
2017-01-28T04:36:17.718Z,1009.86
2017-01-28T04:37:22.072Z,1009.84
2017-01-28T04:38:27.341Z,1009.89
2017-01-28T04:39:30.634Z,1009.87
2017-01-28T04:40:36.795Z,1009.88
2017-01-28T04:41:42.957Z,1009.91
2017-01-28T04:42:49.119Z,1009.89
2017-01-28T04:43:54.321Z,1009.89
2017-01-28T04:45:00.491Z,1009.9
2017-01-28T04:46:05.691Z,1009.89
2017-01-28T04:47:10.037Z,1009.91
2017-01-28T04:48:15.197Z,1009.93
2017-01-28T04:49:20.398Z,1009.96
2017-01-28T04:50:26.628Z,1009.92
2017-01-28T04:51:31.860Z,1009.94
2017-01-28T04:52:37.052Z,1009.99
2017-01-28T04:53:43.215Z,1009.97
2017-01-28T04:54:48.410Z,1009.95
2017-01-28T04:55:54.573Z,1009.97
2017-01-28T04:57:00.760Z,1009.98
2017-01-28T04:58:06.920Z,1009.97
2017-01-28T04:59:13.108Z,1009.97
2017-01-28T05:00:17.344Z,1010
2017-01-28T05:01:23.601Z,1009.97
2017-01-28T05:02:28.802Z,1009.95
2017-01-28T05:03:34.966Z,1009.92
2017-01-28T05:04:40.174Z,1009.97
2017-01-28T05:05:46.356Z,1009.95
2017-01-28T05:06:52.535Z,1009.95
2017-01-28T05:07:58.732Z,1009.94
2017-01-28T05:09:03.872Z,1009.94
2017-01-28T05:10:08.103Z,1009.88
2017-01-28T05:11:13.294Z,1009.91
2017-01-28T05:12:18.484Z,1009.89
2017-01-28T05:13:21.724Z,1009.89
2017-01-28T05:14:27.984Z,1009.94
2017-01-28T05:15:32.215Z,1009.89
2017-01-28T05:16:37.413Z,1009.92
2017-01-28T05:17:41.684Z,1009.91
2017-01-28T05:18:46.901Z,1009.9
2017-01-28T05:19:52.097Z,1009.91
2017-01-28T05:20:57.351Z,1009.89
2017-01-28T05:22:03.456Z,1009.91
2017-01-28T05:23:08.668Z,1009.87
2017-01-28T05:24:13.922Z,1009.88
2017-01-28T05:25:20.087Z,1009.89
2017-01-28T05:26:26.248Z,1009.85
2017-01-28T05:27:31.502Z,1009.87
2017-01-28T05:28:35.688Z,1009.91
2017-01-28T05:29:41.867Z,1009.86
2017-01-28T05:30:48.065Z,1009.83
2017-01-28T05:31:54.225Z,1009.86
2017-01-28T05:32:59.459Z,1009.83
2017-01-28T05:34:03.690Z,1009.84
2017-01-28T05:35:09.796Z,1009.86
2017-01-28T05:36:15.003Z,1009.89
2017-01-28T05:37:21.163Z,1009.83
2017-01-28T05:38:24.393Z,1009.87
2017-01-28T05:39:29.610Z,1009.84
2017-01-28T05:40:35.769Z,1009.87
2017-01-28T05:41:40.965Z,1009.87
2017-01-28T05:42:45.281Z,1009.88
2017-01-28T05:43:49.537Z,1009.92
2017-01-28T05:44:55.743Z,1009.92
2017-01-28T05:46:01.899Z,1009.89
2017-01-28T05:47:08.102Z,1009.93
2017-01-28T05:48:12.329Z,1009.89
2017-01-28T05:49:17.561Z,1009.89
2017-01-28T05:50:23.701Z,1009.89
2017-01-28T05:51:27.909Z,1009.94
2017-01-28T05:52:34.081Z,1009.91
2017-01-28T05:53:38.286Z,1009.91
2017-01-28T05:54:43.489Z,1009.94
2017-01-28T05:55:48.757Z,1009.92
2017-01-28T05:56:54.927Z,1009.93
2017-01-28T05:58:01.128Z,1009.91
2017-01-28T05:59:07.293Z,1009.93
2017-01-28T06:00:12.491Z,1009.94
2017-01-28T06:01:18.658Z,1009.95
2017-01-28T06:02:24.840Z,1009.91
2017-01-28T06:03:29.029Z,1009.9
2017-01-28T06:04:33.239Z,1009.88
2017-01-28T06:05:39.459Z,1009.88
2017-01-28T06:06:45.566Z,1009.82
2017-01-28T06:07:49.796Z,1009.89
2017-01-28T06:08:54.029Z,1009.86
2017-01-28T06:10:00.193Z,1009.87
2017-01-28T06:11:03.458Z,1009.87
2017-01-28T06:12:09.664Z,1009.83
2017-01-28T06:13:13.891Z,1009.86
2017-01-28T06:14:19.084Z,1009.81
2017-01-28T06:15:24.282Z,1009.8
2017-01-28T06:16:30.450Z,1009.84
2017-01-28T06:17:34.678Z,1009.8
2017-01-28T06:18:40.851Z,1009.81
2017-01-28T06:19:46.051Z,1009.82
2017-01-28T06:20:51.212Z,1009.85
2017-01-28T06:21:55.448Z,1009.82
2017-01-28T06:22:59.683Z,1009.8
2017-01-28T06:24:05.840Z,1009.82
2017-01-28T06:25:11.036Z,1009.79
2017-01-28T06:26:16.235Z,1009.82
2017-01-28T06:27:21.451Z,1009.85
2017-01-28T06:28:25.684Z,1009.86
2017-01-28T06:29:31.985Z,1009.86
2017-01-28T06:30:36.210Z,1009.86
2017-01-28T06:31:41.416Z,1009.86
2017-01-28T06:32:46.630Z,1009.88
2017-01-28T06:33:52.810Z,1009.82
2017-01-28T06:34:56.080Z,1009.85
2017-01-28T06:36:00.313Z,1009.85
2017-01-28T06:37:05.478Z,1009.82
2017-01-28T06:38:11.715Z,1009.85
2017-01-28T06:39:16.912Z,1009.83
2017-01-28T06:40:22.091Z,1009.81
2017-01-28T06:41:26.334Z,1009.8
2017-01-28T06:42:31.541Z,1009.8
2017-01-28T06:43:37.822Z,1009.8
2017-01-28T06:44:43.991Z,1009.79
2017-01-28T06:45:49.187Z,1009.77
2017-01-28T06:46:55.372Z,1009.79
2017-01-28T06:48:01.543Z,1009.78
2017-01-28T06:49:03.968Z,1009.8
2017-01-28T06:50:09.167Z,1009.76
2017-01-28T06:51:15.373Z,1009.79
2017-01-28T06:52:20.566Z,1009.74
2017-01-28T06:53:26.731Z,1009.77
2017-01-28T06:54:31.906Z,1009.78
2017-01-28T06:55:37.080Z,1009.74
2017-01-28T06:56:43.253Z,1009.79
2017-01-28T06:57:48.446Z,1009.8
2017-01-28T06:58:53.692Z,1009.81
2017-01-28T06:59:58.827Z,1009.78
2017-01-28T07:01:04.990Z,1009.81
2017-01-28T07:02:09.223Z,1009.83
2017-01-28T07:03:14.434Z,1009.81
2017-01-28T07:04:19.636Z,1009.82
2017-01-28T07:05:25.823Z,1009.86
2017-01-28T07:06:31.006Z,1009.87
2017-01-28T07:07:37.180Z,1009.86
2017-01-28T07:08:43.363Z,1009.91
2017-01-28T07:09:49.542Z,1009.88
2017-01-28T07:10:53.825Z,1009.91
2017-01-28T07:11:59.026Z,1009.9
2017-01-28T07:13:05.195Z,1009.9
2017-01-28T07:14:08.427Z,1009.89
2017-01-28T07:15:14.596Z,1009.89
2017-01-28T07:16:19.885Z,1009.93
2017-01-28T07:17:25.082Z,1009.89
2017-01-28T07:18:31.246Z,1009.9
2017-01-28T07:19:37.412Z,1009.92
2017-01-28T07:20:42.624Z,1009.91
2017-01-28T07:21:48.793Z,1009.88
2017-01-28T07:22:54.977Z,1009.91
2017-01-28T07:24:00.185Z,1009.91
2017-01-28T07:25:06.345Z,1009.95
2017-01-28T07:26:12.517Z,1009.92
2017-01-28T07:27:17.693Z,1009.93
2017-01-28T07:28:23.870Z,1009.91
2017-01-28T07:29:30.031Z,1009.95
2017-01-28T07:30:35.228Z,1009.95
2017-01-28T07:31:40.402Z,1009.93
2017-01-28T07:32:46.587Z,1009.96
2017-01-28T07:33:52.830Z,1009.92
2017-01-28T07:34:59.007Z,1009.94
2017-01-28T07:36:02.358Z,1009.98
2017-01-28T07:37:08.512Z,1010
2017-01-28T07:38:13.727Z,1010.02
2017-01-28T07:39:17.927Z,1010.03
2017-01-28T07:40:23.103Z,1010.02
2017-01-28T07:41:29.274Z,1010.06
2017-01-28T07:42:35.507Z,1009.97
2017-01-28T07:43:39.750Z,1010.01
2017-01-28T07:44:44.948Z,1010.03
2017-01-28T07:45:51.120Z,1009.97
2017-01-28T07:46:56.324Z,1010
2017-01-28T07:48:01.545Z,1010.02
2017-01-28T07:49:06.773Z,1010.06
2017-01-28T07:50:12.953Z,1010.03
2017-01-28T07:51:19.135Z,1010.04
2017-01-28T07:52:22.389Z,1010.04
2017-01-28T07:53:27.562Z,1010.04
2017-01-28T07:54:30.797Z,1010.01
2017-01-28T07:55:37.039Z,1010.06
2017-01-28T07:56:43.185Z,1010.04
2017-01-28T07:57:49.358Z,1010.05
2017-01-28T07:58:54.537Z,1010.05
2017-01-28T08:00:00.761Z,1010.07
2017-01-28T08:01:06.076Z,1010.02
2017-01-28T08:02:12.342Z,1009.99
2017-01-28T08:03:18.511Z,1010.01
2017-01-28T08:04:22.714Z,1010.01
2017-01-28T08:05:28.909Z,1010.01
2017-01-28T08:06:34.059Z,1009.99
2017-01-28T08:07:40.230Z,1010
2017-01-28T08:08:46.556Z,1009.97
2017-01-28T08:09:52.731Z,1010
2017-01-28T08:10:58.967Z,1009.99
2017-01-28T08:12:04.149Z,1010.01
2017-01-28T08:13:08.388Z,1009.96
2017-01-28T08:14:14.565Z,1009.99
2017-01-28T08:15:19.776Z,1009.97
2017-01-28T08:16:26.144Z,1009.96
2017-01-28T08:17:32.350Z,1009.96
2017-01-28T08:18:38.522Z,1010.03
2017-01-28T08:19:43.691Z,1010.01
2017-01-28T08:20:47.987Z,1010
2017-01-28T08:21:54.150Z,1009.99
2017-01-28T08:23:00.316Z,1009.98
2017-01-28T08:24:06.577Z,1009.98
2017-01-28T08:25:12.759Z,1009.99
2017-01-28T08:26:17.938Z,1009.98
2017-01-28T08:27:23.145Z,1010
2017-01-28T08:28:28.418Z,1010
2017-01-28T08:29:33.587Z,1009.97
2017-01-28T08:30:37.875Z,1009.98
2017-01-28T08:31:41.123Z,1010.02
2017-01-28T08:32:47.366Z,1010.03
2017-01-28T08:33:53.675Z,1010.05
2017-01-28T08:34:57.912Z,1010.01
2017-01-28T08:36:03.113Z,1010.04
2017-01-28T08:37:07.320Z,1009.97
2017-01-28T08:38:12.524Z,1009.99
2017-01-28T08:39:17.751Z,1010
2017-01-28T08:40:22.952Z,1009.96
2017-01-28T08:41:27.193Z,1009.97
2017-01-28T08:42:33.364Z,1009.94
2017-01-28T08:44:44.731Z,1009.9
2017-01-28T08:45:49.925Z,1009.89
2017-01-28T08:46:55.120Z,1009.89
2017-01-28T08:47:59.356Z,1009.84
2017-01-28T08:49:04.565Z,1009.85
2017-01-28T08:50:09.764Z,1009.78
2017-01-28T08:51:15.924Z,1009.79
2017-01-28T08:52:20.125Z,1009.77
2017-01-28T08:53:24.367Z,1009.77
2017-01-28T08:54:29.572Z,1009.77
2017-01-28T08:55:35.763Z,1009.76
2017-01-28T08:56:41.892Z,1009.75
2017-01-28T08:57:46.106Z,1009.78
2017-01-28T08:58:49.375Z,1009.75
2017-01-28T08:59:54.578Z,1009.74
2017-01-28T09:01:00.759Z,1009.74
2017-01-28T09:02:06.932Z,1009.72
2017-01-28T09:03:12.140Z,1009.71
2017-01-28T09:04:16.390Z,1009.71
2017-01-28T09:05:22.565Z,1009.73
2017-01-28T09:06:27.841Z,1009.73
2017-01-28T09:07:32.066Z,1009.76
2017-01-28T09:08:36.274Z,1009.77
2017-01-28T09:09:42.445Z,1009.81
2017-01-28T09:10:48.618Z,1009.8
2017-01-28T09:11:53.834Z,1009.83
2017-01-28T09:12:59.047Z,1009.84
2017-01-28T09:14:05.205Z,1009.85
2017-01-28T09:15:09.438Z,1009.86
2017-01-28T09:16:13.672Z,1009.87
2017-01-28T09:17:18.872Z,1009.87
2017-01-28T09:18:24.158Z,1009.85
2017-01-28T09:19:29.358Z,1009.86
2017-01-28T09:20:35.525Z,1009.86
2017-01-28T09:21:41.710Z,1009.86
2017-01-28T09:22:45.921Z,1009.83
2017-01-28T09:23:51.112Z,1009.83
2017-01-28T09:24:55.320Z,1009.88
2017-01-28T09:26:00.530Z,1009.88
2017-01-28T09:27:03.763Z,1009.86
2017-01-28T09:28:08.086Z,1009.87
2017-01-28T09:29:13.255Z,1009.84
2017-01-28T09:30:18.469Z,1009.86
2017-01-28T09:31:23.724Z,1009.85
2017-01-28T09:32:29.905Z,1009.92
2017-01-28T09:33:34.133Z,1009.83
2017-01-28T09:34:39.331Z,1009.86
2017-01-28T09:35:44.527Z,1009.87
2017-01-28T09:36:48.732Z,1009.81
2017-01-28T09:37:53.965Z,1009.84
2017-01-28T09:38:59.171Z,1009.86
2017-01-28T09:40:04.401Z,1009.87
2017-01-28T09:41:09.598Z,1009.88
2017-01-28T09:42:13.893Z,1009.85
2017-01-28T09:43:19.053Z,1009.84
2017-01-28T09:44:23.361Z,1009.84
2017-01-28T09:45:28.565Z,1009.81
2017-01-28T09:46:34.739Z,1009.8
2017-01-28T09:47:40.932Z,1009.77
2017-01-28T09:48:46.178Z,1009.74
2017-01-28T09:49:51.339Z,1009.7
2017-01-28T09:50:56.542Z,1009.72
2017-01-28T09:52:00.776Z,1009.73
2017-01-28T09:53:06.039Z,1009.71
2017-01-28T09:54:12.205Z,1009.68
2017-01-28T09:55:18.385Z,1009.67
2017-01-28T09:56:24.553Z,1009.69
2017-01-28T09:57:29.768Z,1009.68
2017-01-28T09:58:35.942Z,1009.69
2017-01-28T09:59:41.122Z,1009.63
2017-01-28T10:00:46.331Z,1009.64
2017-01-28T10:01:52.515Z,1009.65
2017-01-28T10:02:58.681Z,1009.67
2017-01-28T10:04:04.849Z,1009.64
2017-01-28T10:05:09.108Z,1009.69
2017-01-28T10:06:13.318Z,1009.69
2017-01-28T10:07:18.558Z,1009.65
2017-01-28T10:08:24.735Z,1009.7
2017-01-28T10:09:29.952Z,1009.73
2017-01-28T10:10:36.124Z,1009.71
2017-01-28T10:11:41.310Z,1009.74
2017-01-28T10:12:47.496Z,1009.73
2017-01-28T10:13:53.667Z,1009.74
2017-01-28T10:14:59.863Z,1009.68
2017-01-28T10:16:05.066Z,1009.72
2017-01-28T10:17:11.294Z,1009.71
2017-01-28T10:18:17.468Z,1009.72
2017-01-28T10:19:23.657Z,1009.71
2017-01-28T10:20:29.815Z,1009.73
2017-01-28T10:21:36.040Z,1009.76
2017-01-28T10:22:41.207Z,1009.88
2017-01-28T10:23:47.385Z,1009.89
2017-01-28T10:24:53.563Z,1009.74
2017-01-28T10:25:58.772Z,1009.77
2017-01-28T10:27:04.944Z,1009.75
2017-01-28T10:28:11.122Z,1009.82
2017-01-28T10:29:17.299Z,1009.81
2017-01-28T10:30:23.488Z,1009.81
2017-01-28T10:31:27.711Z,1009.79
2017-01-28T10:32:33.028Z,1009.76
2017-01-28T10:33:39.214Z,1009.79
2017-01-28T10:34:44.423Z,1009.76
2017-01-28T10:35:50.603Z,1009.81
2017-01-28T10:36:53.880Z,1009.83
2017-01-28T10:37:59.104Z,1009.86
2017-01-28T10:39:05.290Z,1009.87
2017-01-28T10:40:10.544Z,1009.74
2017-01-28T10:41:15.728Z,1009.77
2017-01-28T10:42:21.912Z,1009.76
2017-01-28T10:43:27.128Z,1009.83
2017-01-28T10:44:32.344Z,1009.91
2017-01-28T10:45:37.551Z,1009.94
2017-01-28T10:46:41.784Z,1009.93
2017-01-28T10:47:48.079Z,1009.79
2017-01-28T10:48:54.219Z,1009.78
2017-01-28T10:49:59.400Z,1009.93
2017-01-28T10:51:05.585Z,1009.86
2017-01-28T10:52:11.763Z,1009.77
2017-01-28T10:53:17.944Z,1009.6
2017-01-28T10:54:24.137Z,1009.57
2017-01-28T10:55:30.319Z,1009.56
2017-01-28T10:56:35.532Z,1009.6
2017-01-28T10:57:40.718Z,1009.61
2017-01-28T10:58:45.922Z,1009.56
2017-01-28T10:59:52.159Z,1009.54
2017-01-28T11:00:57.399Z,1009.51
2017-01-28T11:02:02.618Z,1009.54
2017-01-28T11:03:08.800Z,1009.52
2017-01-28T11:04:14.060Z,1009.52
2017-01-28T11:05:20.196Z,1009.5
2017-01-28T11:06:25.429Z,1009.46
2017-01-28T11:07:29.614Z,1009.51
2017-01-28T11:08:35.792Z,1009.5
2017-01-28T11:09:40.997Z,1009.47
2017-01-28T11:10:45.213Z,1009.46
2017-01-28T11:11:50.416Z,1009.49
2017-01-28T11:12:56.699Z,1009.48
2017-01-28T11:14:01.924Z,1009.44
2017-01-28T11:15:07.175Z,1009.43
2017-01-28T11:16:13.373Z,1009.46
2017-01-28T11:17:17.580Z,1009.43
2017-01-28T11:18:23.871Z,1009.44
2017-01-28T11:19:28.009Z,1009.4
2017-01-28T11:20:31.279Z,1009.46
2017-01-28T11:21:37.452Z,1009.39
2017-01-28T11:22:43.672Z,1009.38
2017-01-28T11:23:47.960Z,1009.32
2017-01-28T11:24:52.240Z,1009.34
2017-01-28T11:25:58.424Z,1009.3
2017-01-28T11:27:04.551Z,1009.38
2017-01-28T11:28:10.757Z,1009.35
2017-01-28T11:29:16.935Z,1009.32
2017-01-28T11:30:21.204Z,1009.35
2017-01-28T11:31:26.388Z,1009.36
2017-01-28T11:32:30.620Z,1009.34
2017-01-28T11:33:34.862Z,1009.37
2017-01-28T11:34:41.044Z,1009.35
2017-01-28T11:35:45.285Z,1009.34
2017-01-28T11:36:50.503Z,1009.35
2017-01-28T11:37:55.719Z,1009.35
2017-01-28T11:39:00.929Z,1009.31
2017-01-28T11:40:06.127Z,1009.34
2017-01-28T11:41:11.304Z,1009.35
2017-01-28T11:42:17.476Z,1009.31
2017-01-28T11:43:23.688Z,1009.27
2017-01-28T11:44:29.857Z,1009.26
2017-01-28T11:45:36.087Z,1009.24
2017-01-28T11:46:40.288Z,1009.26
2017-01-28T11:47:43.540Z,1009.24
2017-01-28T11:48:48.747Z,1009.22
2017-01-28T11:49:54.927Z,1009.21
2017-01-28T11:51:00.151Z,1009.23
2017-01-28T11:52:04.420Z,1009.18
2017-01-28T11:53:09.576Z,1009.17
2017-01-28T11:54:14.750Z,1009.17
2017-01-28T11:55:20.963Z,1009.14
2017-01-28T11:56:26.160Z,1009.15
2017-01-28T11:57:32.328Z,1009.14
2017-01-28T11:58:38.519Z,1009.12
2017-01-28T11:59:43.701Z,1009.13
2017-01-28T12:00:48.913Z,1009.1
2017-01-28T12:01:53.168Z,1009.1
2017-01-28T12:02:59.344Z,1009.03
2017-01-28T12:04:05.527Z,1009.08
2017-01-28T12:05:10.738Z,1009.02
2017-01-28T12:06:16.924Z,1009.06
2017-01-28T12:07:22.133Z,1009.05
2017-01-28T12:08:24.423Z,1009.03
2017-01-28T12:09:30.637Z,1009.02
2017-01-28T12:10:35.784Z,1009.03
2017-01-28T12:11:42.012Z,1008.96
2017-01-28T12:12:46.265Z,1008.94
2017-01-28T12:13:52.404Z,1008.93
2017-01-28T12:14:58.632Z,1008.96
2017-01-28T12:16:04.771Z,1008.97
2017-01-28T12:17:10.949Z,1008.99
2017-01-28T12:18:16.156Z,1008.96
2017-01-28T12:19:21.362Z,1008.97
2017-01-28T12:20:26.572Z,1008.94
2017-01-28T12:21:31.804Z,1008.92
2017-01-28T12:22:36.017Z,1008.92
2017-01-28T12:23:42.249Z,1008.92
2017-01-28T12:24:46.471Z,1008.91
2017-01-28T12:25:52.646Z,1008.91
2017-01-28T12:26:57.849Z,1008.9
2017-01-28T12:28:03.050Z,1008.89
2017-01-28T12:29:07.304Z,1008.89
2017-01-28T12:30:13.487Z,1008.82
2017-01-28T12:31:19.697Z,1008.79
2017-01-28T12:32:25.872Z,1008.82
2017-01-28T12:33:32.014Z,1008.81
2017-01-28T12:34:38.189Z,1008.81
2017-01-28T12:35:43.407Z,1008.81
2017-01-28T12:36:49.598Z,1008.79
2017-01-28T12:37:54.775Z,1008.76
2017-01-28T12:39:00.006Z,1008.76
2017-01-28T12:40:06.187Z,1008.79
2017-01-28T12:41:12.360Z,1008.78
2017-01-28T12:42:17.653Z,1008.77
2017-01-28T12:43:23.819Z,1008.7
2017-01-28T12:44:29.102Z,1008.73
2017-01-28T12:45:35.284Z,1008.72
2017-01-28T12:46:41.456Z,1008.7
2017-01-28T12:47:45.667Z,1008.71
2017-01-28T12:48:49.906Z,1008.62
2017-01-28T12:49:55.077Z,1008.62
2017-01-28T12:51:01.263Z,1008.64
2017-01-28T12:52:06.445Z,1008.56
2017-01-28T12:53:12.614Z,1008.58
2017-01-28T12:54:17.835Z,1008.59
2017-01-28T12:55:23.068Z,1008.56
2017-01-28T12:56:28.287Z,1008.57
2017-01-28T12:57:34.453Z,1008.59
2017-01-28T12:58:39.668Z,1008.56
2017-01-28T12:59:45.859Z,1008.54
2017-01-28T13:00:52.025Z,1008.56
2017-01-28T13:01:57.282Z,1008.53
2017-01-28T13:03:02.454Z,1008.49
2017-01-28T13:04:07.695Z,1008.5
2017-01-28T13:05:13.863Z,1008.47
2017-01-28T13:06:19.071Z,1008.47
2017-01-28T13:07:23.312Z,1008.43
2017-01-28T13:08:28.511Z,1008.41
2017-01-28T13:09:34.690Z,1008.45
2017-01-28T13:10:40.864Z,1008.43
2017-01-28T13:11:46.073Z,1008.42
2017-01-28T13:12:52.257Z,1008.41
2017-01-28T13:13:56.504Z,1008.41
2017-01-28T13:15:01.678Z,1008.46
2017-01-28T13:16:05.947Z,1008.41
2017-01-28T13:17:12.115Z,1008.38